Time;durP1;ratioP1;P1;durP2;ratioP2;P2;SDS_P1;SDS_P2;PMS_P1;PMS_P2;Temp;Humidity;BMP_temperature;BMP_pressure;BME280_temperature;BME280_humidity;BME280_pressure;Samples;Min_cycle;Max_cycle;Signal;HPM_P1;HPM_P2
2023/10/20 00:01:35;;;;;;;25.37;20.33;;;;;;;7.50;100.00;95567.47;6257811;28;20227;-43
2023/10/20 00:04:38;;;;;;;26.47;20.83;;;;;;;7.43;100.00;95569.59;6255136;28;20227;-42
2023/10/20 00:07:40;;;;;;;28.33;20.47;;;;;;;7.41;100.00;95579.69;6253187;28;20710;-47
2023/10/20 00:10:42;;;;;;;27.70;21.30;;;;;;;7.38;100.00;95580.22;6252878;28;20325;-43
2023/10/20 00:13:45;;;;;;;29.27;22.33;;;;;;;7.33;100.00;95557.19;6252988;28;20227;-41
2023/10/20 00:16:47;;;;;;;28.60;21.77;;;;;;;7.30;100.00;95543.75;6253220;28;20234;-43
2023/10/20 00:19:49;;;;;;;20.17;17.17;;;;;;;7.30;100.00;95552.47;6250699;28;20242;-44
2023/10/20 00:22:51;;;;;;;20.87;17.47;;;;;;;7.30;100.00;95547.16;6253019;28;20237;-46
2023/10/20 00:25:54;;;;;;;22.70;18.13;;;;;;;7.30;100.00;95541.09;6253992;28;20910;-43
2023/10/20 00:28:56;;;;;;;29.10;23.13;;;;;;;7.24;100.00;95524.41;6252913;28;20307;-43
2023/10/20 00:31:58;;;;;;;32.00;23.20;;;;;;;7.21;100.00;95504.56;6249511;28;20238;-50
2023/10/20 00:35:04;;;;;;;26.87;20.87;;;;;;;7.15;100.00;95512.84;6250717;28;20234;-44
2023/10/20 00:38:06;;;;;;;25.97;20.20;;;;;;;7.12;100.00;95523.97;6233418;28;20242;-42
2023/10/20 00:41:09;;;;;;;20.83;16.90;;;;;;;6.93;100.00;95497.31;6252979;28;20237;-44
2023/10/20 00:44:12;;;;;;;28.80;19.70;;;;;;;7.08;100.00;95507.81;6250979;28;20230;-45
2023/10/20 00:47:20;;;;;;;23.33;18.13;;;;;;;7.11;100.00;95509.94;6255252;28;20326;-44
2023/10/20 00:50:23;;;;;;;27.60;20.50;;;;;;;7.04;100.00;95501.47;6250688;28;20235;-43
2023/10/20 00:53:29;;;;;;;22.57;18.30;;;;;;;7.02;100.00;95508.91;6258115;28;20235;-42
2023/10/20 00:56:32;;;;;;;26.33;21.40;;;;;;;6.87;100.00;95478.00;6253918;28;20238;-47
2023/10/20 00:59:34;;;;;;;30.83;22.97;;;;;;;6.97;100.00;95487.75;6255793;28;20265;-47
2023/10/20 01:02:37;;;;;;;28.50;21.13;;;;;;;6.90;100.00;95493.34;6256287;28;20230;-43
2023/10/20 01:05:40;;;;;;;26.83;21.20;;;;;;;6.90;100.00;95498.66;6257844;28;20243;-42
2023/10/20 01:08:42;;;;;;;28.93;22.63;;;;;;;6.85;100.00;95485.44;6256613;28;20272;-44
2023/10/20 01:11:45;;;;;;;27.83;22.07;;;;;;;6.83;100.00;95486.75;6256803;28;20222;-41
2023/10/20 01:14:47;;;;;;;30.43;23.43;;;;;;;6.80;100.00;95488.13;6256308;28;20315;-42
2023/10/20 01:17:49;;;;;;;29.43;23.23;;;;;;;6.76;100.00;95483.63;6254950;28;20237;-41
2023/10/20 01:20:52;;;;;;;32.77;24.83;;;;;;;6.74;100.00;95475.94;6256304;28;20252;-42
2023/10/20 01:23:54;;;;;;;34.23;24.70;;;;;;;6.77;100.00;95467.47;6257348;28;20230;-43
2023/10/20 01:26:56;;;;;;;34.97;25.10;;;;;;;6.58;100.00;95445.34;6256843;28;20272;-42
2023/10/20 01:29:59;;;;;;;32.27;24.13;;;;;;;6.71;100.00;95466.72;6257331;28;20367;-42
2023/10/20 01:33:01;;;;;;;34.60;24.23;;;;;;;6.71;100.00;95463.28;6256267;28;20234;-42
2023/10/20 01:36:03;;;;;;;38.43;26.40;;;;;;;6.75;100.00;95464.31;6256100;28;20231;-43
2023/10/20 01:39:08;;;;;;;38.03;26.93;;;;;;;6.77;100.00;95461.41;6256671;28;20223;-44
2023/10/20 01:42:10;;;;;;;39.80;27.27;;;;;;;6.69;100.00;95425.69;6257756;28;20293;-43
2023/10/20 01:45:13;;;;;;;36.73;25.87;;;;;;;6.79;100.00;95438.09;6269981;28;20210;-42
2023/10/20 01:48:15;;;;;;;36.00;25.47;;;;;;;6.76;100.00;95428.84;6256175;28;20226;-41
2023/10/20 01:51:18;;;;;;;40.70;27.40;;;;;;;6.75;100.00;95427.28;6256315;28;20214;-44
2023/10/20 01:54:20;;;;;;;43.43;29.37;;;;;;;6.74;100.00;95423.03;6256634;28;20228;-42
2023/10/20 01:57:22;;;;;;;40.77;27.73;;;;;;;6.81;100.00;95412.16;6252634;28;20244;-43
2023/10/20 02:00:25;;;;;;;42.77;29.87;;;;;;;6.84;100.00;95409.75;6253889;28;20229;-43
2023/10/20 02:03:29;;;;;;;39.80;26.13;;;;;;;6.82;100.00;95389.91;6255937;28;20219;-41
2023/10/20 02:06:32;;;;;;;35.17;24.63;;;;;;;6.85;100.00;95378.81;6253834;28;20714;-45
2023/10/20 02:09:35;;;;;;;29.33;21.67;;;;;;;6.87;100.00;95377.44;6254031;28;20226;-43
2023/10/20 02:12:37;;;;;;;29.70;21.47;;;;;;;6.90;100.00;95387.50;6255005;28;20359;-42
2023/10/20 02:15:46;;;;;;;33.43;24.00;;;;;;;6.92;100.00;95380.06;6254002;28;20225;-43
2023/10/20 02:18:48;;;;;;;35.33;23.93;;;;;;;6.93;100.00;95386.13;6255262;28;20241;-42
2023/10/20 02:21:52;;;;;;;28.63;21.80;;;;;;;6.94;100.00;95393.78;6252155;28;20280;-42
2023/10/20 02:24:54;;;;;;;28.93;21.30;;;;;;;6.95;100.00;95394.63;6255630;28;20223;-42
2023/10/20 02:27:56;;;;;;;33.70;24.03;;;;;;;6.90;100.00;95379.56;6254665;28;20238;-45
2023/10/20 02:31:00;;;;;;;33.67;24.27;;;;;;;6.90;100.00;95376.13;6259059;28;20703;-44
2023/10/20 02:34:03;;;;;;;27.87;20.97;;;;;;;6.91;100.00;95378.47;6253789;28;20231;-42
2023/10/20 02:37:07;;;;;;;33.50;25.17;;;;;;;6.93;100.00;95365.75;6254844;28;20238;-42
2023/10/20 02:40:10;;;;;;;33.17;25.63;;;;;;;6.90;100.00;95370.81;6236095;28;20230;-42
2023/10/20 02:43:13;;;;;;;35.93;27.10;;;;;;;6.88;100.00;95367.66;6253256;28;20234;-42
2023/10/20 02:46:17;;;;;;;39.23;27.77;;;;;;;6.82;100.00;95352.88;6251902;28;20249;-43
2023/10/20 02:49:20;;;;;;;36.83;26.33;;;;;;;6.80;100.00;95353.16;6254806;28;20240;-41
2023/10/20 02:52:25;;;;;;;31.90;24.60;;;;;;;6.71;100.00;95339.72;6255200;28;20231;-43
2023/10/20 02:55:28;;;;;;;40.73;25.43;;;;;;;6.74;100.00;95351.59;6255806;28;20626;-42
2023/10/20 02:58:30;;;;;;;36.90;25.23;;;;;;;6.70;100.00;95343.44;6250888;28;20304;-45
2023/10/20 03:01:32;;;;;;;40.40;26.80;;;;;;;6.69;100.00;95338.41;6253159;28;20243;-43
2023/10/20 03:04:36;;;;;;;32.53;24.70;;;;;;;6.69;100.00;95344.47;6247581;28;20253;-42
2023/10/20 03:07:41;;;;;;;34.67;23.27;;;;;;;6.71;100.00;95346.88;6252630;28;20237;-42
2023/10/20 03:10:43;;;;;;;32.20;23.27;;;;;;;6.71;100.00;95342.34;6254517;28;20231;-43
2023/10/20 03:13:46;;;;;;;31.73;22.77;;;;;;;6.73;100.00;95347.38;6254370;28;20234;-43
2023/10/20 03:16:48;;;;;;;37.83;25.43;;;;;;;6.77;100.00;95350.25;6253942;28;20231;-43
2023/10/20 03:19:51;;;;;;;34.83;23.23;;;;;;;6.75;100.00;95342.59;6252450;28;20234;-42
2023/10/20 03:22:54;;;;;;;29.20;22.03;;;;;;;6.75;100.00;95341.78;6253248;28;20304;-44
2023/10/20 03:25:57;;;;;;;28.17;20.40;;;;;;;6.73;100.00;95352.66;6254003;28;20230;-43
2023/10/20 03:29:04;;;;;;;30.93;21.73;;;;;;;6.71;100.00;95344.22;6253346;28;20260;-43
2023/10/20 03:32:08;;;;;;;24.37;18.33;;;;;;;6.73;100.00;95344.72;6251604;28;20234;-41
2023/10/20 03:35:12;;;;;;;25.93;17.60;;;;;;;6.75;100.00;95328.56;6253832;28;20700;-42
2023/10/20 03:38:14;;;;;;;23.50;17.40;;;;;;;6.76;100.00;95324.88;6253130;28;20230;-43
2023/10/20 03:41:22;;;;;;;21.53;17.37;;;;;;;6.77;100.00;95321.16;6251779;28;20223;-45
2023/10/20 03:44:25;;;;;;;25.37;17.47;;;;;;;6.76;100.00;95320.38;6253168;28;20268;-43
2023/10/20 03:47:33;;;;;;;21.87;16.30;;;;;;;6.77;100.00;95318.50;6253588;28;20231;-42
2023/10/20 03:50:38;;;;;;;23.63;17.47;;;;;;;6.74;100.00;95317.19;6250690;28;20234;-43
2023/10/20 03:53:47;;;;;;;23.33;17.20;;;;;;;6.73;100.00;95328.84;6253385;28;20252;-42
2023/10/20 03:56:50;;;;;;;22.27;16.37;;;;;;;6.76;100.00;95320.38;6253108;28;20239;-43
2023/10/20 03:59:52;;;;;;;19.77;15.87;;;;;;;6.83;100.00;95304.16;6235663;28;20232;-43
2023/10/20 04:02:56;;;;;;;19.27;14.83;;;;;;;6.89;100.00;95314.44;6251213;28;20732;-42
2023/10/20 04:06:00;;;;;;;19.57;14.13;;;;;;;6.91;100.00;95320.25;6248621;28;20234;-42
2023/10/20 04:09:09;;;;;;;20.27;14.37;;;;;;;6.92;100.00;95327.13;6253903;28;20241;-43
2023/10/20 04:12:11;;;;;;;17.30;14.27;;;;;;;6.94;100.00;95318.91;6249826;28;20223;-43
2023/10/20 04:15:19;;;;;;;17.37;13.43;;;;;;;6.94;100.00;95308.31;6235649;28;20219;-43
2023/10/20 04:18:26;;;;;;;23.70;17.30;;;;;;;6.96;100.00;95296.41;6252691;28;20230;-42
2023/10/20 04:21:29;;;;;;;21.17;15.93;;;;;;;7.01;100.00;95297.44;6244575;28;20313;-42
2023/10/20 04:24:31;;;;;;;22.70;17.47;;;;;;;7.08;100.00;95293.38;6253420;28;20222;-42
2023/10/20 04:51:28;;;;;;;21.50;15.87;;;;;;;7.30;100.00;95247.13;6218413;28;20231;-45
2023/10/20 04:57:53;;;;;;;25.43;19.67;;;;;;;7.22;100.00;95227.34;6218811;28;20221;-42
2023/10/20 05:01:04;;;;;;;23.03;18.10;;;;;;;7.36;100.00;95253.94;6216196;28;20808;-43
2023/10/20 05:07:26;;;;;;;23.13;18.03;;;;;;;7.39;100.00;95248.06;6263194;28;20587;-43
2023/10/20 05:10:28;;;;;;;27.83;23.48;;;;;;;7.50;100.00;95250.34;6275439;28;20930;-44
2023/10/20 05:13:32;;;;;;;22.30;18.97;;;;;;;7.49;100.00;95246.13;6283322;28;20234;-42
2023/10/20 05:16:35;;;;;;;24.20;19.07;;;;;;;7.51;100.00;95245.84;6276330;28;20237;-43
2023/10/20 05:19:37;;;;;;;21.20;16.77;;;;;;;7.55;100.00;95240.78;6275859;28;20248;-42
2023/10/20 05:22:41;;;;;;;18.67;14.87;;;;;;;7.60;100.00;95222.94;6273773;28;20241;-43
2023/10/20 05:25:49;;;;;;;24.13;15.57;;;;;;;7.71;100.00;95239.50;6274118;28;20226;-42
2023/10/20 05:28:51;;;;;;;20.33;15.43;;;;;;;7.76;100.00;95223.56;6281280;28;20225;-44
2023/10/20 05:31:54;;;;;;;16.90;13.67;;;;;;;7.83;100.00;95225.84;6277852;28;20230;-43
2023/10/20 05:34:58;;;;;;;16.07;12.83;;;;;;;7.89;100.00;95222.09;6280086;28;20263;-42
2023/10/20 05:38:00;;;;;;;17.23;13.57;;;;;;;7.93;100.00;95223.06;6262895;28;20237;-42
2023/10/20 05:41:03;;;;;;;18.20;13.03;;;;;;;7.88;100.00;95212.53;6281162;28;20239;-42
2023/10/20 05:44:06;;;;;;;18.67;14.77;;;;;;;7.91;100.00;95218.06;6280593;28;20229;-43
2023/10/20 05:47:08;;;;;;;16.73;13.70;;;;;;;7.84;100.00;95222.94;6280502;28;20296;-42
2023/10/20 05:50:11;;;;;;;17.57;14.27;;;;;;;7.85;100.00;95227.16;6279720;28;20242;-42
2023/10/20 05:53:14;;;;;;;17.93;13.83;;;;;;;7.87;100.00;95217.03;6278853;28;20590;-42
2023/10/20 05:56:16;;;;;;;17.20;14.07;;;;;;;7.81;100.00;95188.25;6280345;28;20267;-43
2023/10/20 05:59:19;;;;;;;15.57;12.73;;;;;;;8.09;100.00;95226.31;6275693;28;20214;-43
2023/10/20 06:02:22;;;;;;;15.27;13.00;;;;;;;8.24;100.00;95218.16;6277493;28;20606;-46
2023/10/20 06:05:26;;;;;;;17.33;12.47;;;;;;;8.40;100.00;95222.19;6277268;28;20260;-43
2023/10/20 06:08:30;;;;;;;16.70;12.83;;;;;;;8.51;100.00;95185.66;6263830;28;20238;-42
2023/10/20 06:11:35;;;;;;;14.67;11.20;;;;;;;8.78;100.00;95207.00;6281158;28;20599;-43
2023/10/20 06:14:37;;;;;;;15.70;12.17;;;;;;;8.90;100.00;95208.41;6280142;28;20271;-45
2023/10/20 06:17:41;;;;;;;14.40;10.83;;;;;;;8.99;100.00;95212.75;6279038;28;20235;-42
2023/10/20 06:20:43;;;;;;;14.10;11.47;;;;;;;8.97;100.00;95224.75;6279275;28;20674;-42
2023/10/20 06:23:46;;;;;;;15.87;12.13;;;;;;;8.92;100.00;95235.47;6280189;28;20264;-42
2023/10/20 06:26:48;;;;;;;25.07;16.80;;;;;;;8.89;100.00;95225.41;6279360;28;20241;-44
2023/10/20 06:29:58;;;;;;;17.23;14.47;;;;;;;8.90;100.00;95224.31;6279276;28;20234;-43
2023/10/20 06:36:22;;;;;;;21.43;15.97;;;;;;;8.97;100.00;95212.25;6278038;28;20988;-44
2023/10/20 06:39:26;;;;;;;18.10;15.63;;;;;;;8.91;100.00;95194.03;6279067;28;20592;-43
2023/10/20 06:42:28;;;;;;;20.77;17.27;;;;;;;9.13;100.00;95204.03;6279135;28;20231;-42
2023/10/20 06:45:31;;;;;;;17.87;15.13;;;;;;;9.19;100.00;95193.00;6278840;28;20511;-42
2023/10/20 06:48:34;;;;;;;17.10;13.83;;;;;;;9.32;100.00;95198.66;6279472;28;20230;-44
2023/10/20 06:51:37;;;;;;;25.40;17.27;;;;;;;9.45;100.00;95206.59;6260515;28;20844;-42
2023/10/20 06:54:39;;;;;;;19.53;14.77;;;;;;;9.56;100.00;95193.94;6279406;28;20228;-43
2023/10/20 06:57:41;;;;;;;18.40;15.47;;;;;;;9.66;100.00;95196.38;6276354;28;20319;-42
2023/10/20 07:00:45;;;;;;;18.67;13.47;;;;;;;9.76;100.00;95187.41;6284262;28;20231;-43
2023/10/20 07:03:47;;;;;;;16.97;12.90;;;;;;;9.92;100.00;95187.88;6278609;28;20237;-44
2023/10/20 07:06:51;;;;;;;16.60;11.53;;;;;;;10.04;100.00;95175.63;6279607;28;20262;-43
2023/10/20 07:09:54;;;;;;;18.90;13.20;;;;;;;10.18;100.00;95167.59;6278410;28;20387;-44
2023/10/20 07:12:56;;;;;;;12.13;9.87;;;;;;;10.27;100.00;95160.50;6278122;28;20589;-43
2023/10/20 07:15:59;;;;;;;10.87;9.10;;;;;;;10.36;100.00;95173.09;6277669;28;20240;-43
2023/10/20 07:19:01;;;;;;;12.00;9.33;;;;;;;10.48;100.00;95166.13;6279616;28;20596;-45
2023/10/20 07:22:04;;;;;;;11.70;8.60;;;;;;;10.61;100.00;95156.53;6277969;28;20261;-44
2023/10/20 07:25:08;;;;;;;8.13;7.17;;;;;;;10.72;100.00;95167.72;6279161;28;20298;-44
2023/10/20 07:28:10;;;;;;;10.10;7.00;;;;;;;10.87;100.00;95158.56;6276551;28;20246;-43
2023/10/20 07:31:21;;;;;;;8.20;7.33;;;;;;;10.94;100.00;95166.91;6278636;28;20295;-44
2023/10/20 07:34:25;;;;;;;7.93;7.10;;;;;;;11.02;100.00;95158.16;6277939;28;20749;-45
2023/10/20 07:37:27;;;;;;;11.43;8.20;;;;;;;11.13;100.00;95159.47;6277591;28;20244;-43
2023/10/20 07:40:34;;;;;;;10.07;7.80;;;;;;;11.28;100.00;95148.41;6278338;28;20237;-43
2023/10/20 07:43:41;;;;;;;16.97;10.83;;;;;;;11.42;100.00;95132.28;6275193;28;20238;-42
2023/10/20 07:46:43;;;;;;;17.90;12.23;;;;;;;11.62;100.00;95134.41;6277146;28;20245;-44
2023/10/20 07:49:46;;;;;;;15.90;12.40;;;;;;;11.73;100.00;95129.56;6278760;28;20230;-46
2023/10/20 07:52:48;;;;;;;19.60;11.17;;;;;;;11.79;100.00;95122.19;6259874;28;20268;-43
2023/10/20 07:55:50;;;;;;;12.57;9.40;;;;;;;11.88;100.00;95115.03;6276931;28;20249;-43
2023/10/20 07:58:53;;;;;;;12.40;8.63;;;;;;;11.94;100.00;95110.31;6274241;28;20225;-44
2023/10/20 08:01:56;;;;;;;15.00;8.73;;;;;;;12.04;100.00;95108.13;6275861;28;20226;-42
2023/10/20 08:04:59;;;;;;;12.47;8.83;;;;;;;12.09;100.00;95107.97;6281700;28;20222;-42
2023/10/20 08:08:01;;;;;;;11.07;7.90;;;;;;;12.27;100.00;95108.75;6276146;28;20242;-42
2023/10/20 08:11:06;;;;;;;13.93;9.13;;;;;;;12.45;100.00;95100.69;6276425;28;20303;-42
2023/10/20 08:14:09;;;;;;;12.17;9.10;;;;;;;12.60;100.00;95110.88;6275155;28;20368;-44
2023/10/20 08:17:12;;;;;;;15.50;9.27;;;;;;;12.96;100.00;95102.47;6282002;28;20222;-44
2023/10/20 08:20:15;;;;;;;17.70;9.97;;;;;;;13.20;100.00;95091.22;6278591;28;20230;-43
2023/10/20 08:23:18;;;;;;;15.63;9.40;;;;;;;13.34;100.00;95088.34;6277344;28;20283;-43
2023/10/20 08:26:21;;;;;;;17.33;8.90;;;;;;;13.53;100.00;95077.22;6276563;28;20227;-42
2023/10/20 08:29:23;;;;;;;14.37;8.37;;;;;;;13.80;100.00;95067.94;6276543;28;20574;-44
2023/10/20 08:32:26;;;;;;;15.97;8.20;;;;;;;13.98;100.00;95063.22;6277290;28;20800;-42
2023/10/20 08:35:30;;;;;;;11.03;7.10;;;;;;;14.29;100.00;95038.69;6277117;28;20780;-44
2023/10/20 08:38:32;;;;;;;14.37;6.53;;;;;;;14.43;100.00;95025.78;6276624;28;20219;-43
2023/10/20 08:41:35;;;;;;;14.80;5.37;;;;;;;14.58;100.00;95032.41;6276110;28;20317;-44
2023/10/20 08:44:37;;;;;;;10.67;4.73;;;;;;;14.62;100.00;95011.91;6275452;28;20603;-43
2023/10/20 08:47:43;;;;;;;7.40;3.70;;;;;;;14.79;100.00;95018.97;6276237;28;20598;-43
2023/10/20 08:50:47;;;;;;;7.67;3.63;;;;;;;14.99;100.00;95010.03;6275775;28;20245;-43
2023/10/20 08:53:50;;;;;;;7.77;3.10;;;;;;;15.45;100.00;95026.75;6274811;28;20230;-43
2023/10/20 08:56:52;;;;;;;7.83;3.10;;;;;;;15.90;100.00;95031.16;6277794;28;20302;-44
2023/10/20 08:59:54;;;;;;;12.13;2.90;;;;;;;15.95;100.00;95015.59;6275558;28;20222;-43
2023/10/20 09:03:00;;;;;;;7.30;2.87;;;;;;;16.18;100.00;95042.72;6276301;28;20237;-43
2023/10/20 09:06:06;;;;;;;10.30;3.30;;;;;;;16.31;100.00;95051.50;6257270;28;20737;-44
2023/10/20 09:09:09;;;;;;;5.97;3.00;;;;;;;16.53;100.00;95052.84;6280129;28;20384;-43
2023/10/20 09:12:13;;;;;;;7.20;3.37;;;;;;;16.66;100.00;95051.66;6281590;28;20246;-45
2023/10/20 09:15:16;;;;;;;12.83;3.83;;;;;;;16.99;100.00;95048.69;6280956;28;20276;-43
2023/10/20 09:18:19;;;;;;;4.57;2.93;;;;;;;17.00;100.00;95054.84;6280813;28;20230;-44
2023/10/20 09:21:30;;;;;;;7.90;3.50;;;;;;;16.98;99.49;95025.59;6283785;28;20272;-43
2023/10/20 09:24:34;;;;;;;10.03;3.87;;;;;;;17.20;98.71;95037.66;6279218;28;20292;-44
2023/10/20 09:27:39;;;;;;;13.77;3.43;;;;;;;17.32;97.60;95031.38;6280962;28;20620;-45
2023/10/20 09:30:43;;;;;;;11.40;3.70;;;;;;;17.42;96.41;95022.78;6280406;28;20317;-46
2023/10/20 09:33:45;;;;;;;11.77;3.97;;;;;;;17.71;93.93;95021.47;6280498;28;20271;-43
2023/10/20 09:36:52;;;;;;;12.43;3.07;;;;;;;17.77;93.88;95038.94;6286661;28;20219;-43
2023/10/20 09:40:10;;;;;;;9.67;3.30;;;;;;;18.04;89.90;95041.81;6283043;28;20261;-49
2023/10/20 09:43:30;;;;;;;8.97;3.20;;;;;;;18.19;89.77;95040.97;6278789;28;21832;-44
2023/10/20 09:46:44;;;;;;;11.20;3.30;;;;;;;18.17;90.09;95010.91;6278967;28;20284;-42
2023/10/20 09:49:51;;;;;;;4.80;2.60;;;;;;;18.14;88.88;94998.16;6284118;28;20373;-43
2023/10/20 09:52:53;;;;;;;13.00;3.07;;;;;;;18.37;88.21;95010.88;6280882;28;20368;-47
2023/10/20 09:55:56;;;;;;;6.40;2.83;;;;;;;18.35;88.60;95007.78;6280450;28;20423;-43
2023/10/20 09:59:00;;;;;;;10.03;3.60;;;;;;;18.35;88.50;95005.06;6278578;28;20222;-45
2023/10/20 10:02:04;;;;;;;9.97;3.33;;;;;;;18.59;86.63;95020.16;6262644;28;20768;-43
2023/10/20 10:05:09;;;;;;;6.87;2.67;;;;;;;18.71;86.91;95015.38;6279216;28;20592;-44
2023/10/20 10:08:12;;;;;;;6.27;2.37;;;;;;;19.11;81.95;94991.75;6280413;28;20223;-47
2023/10/20 10:11:19;;;;;;;11.73;3.40;;;;;;;19.08;83.16;94995.97;6279974;28;20531;-46
2023/10/20 10:14:23;;;;;;;7.23;2.70;;;;;;;18.96;84.20;95004.22;6279695;28;20652;-45
2023/10/20 10:17:26;;;;;;;13.17;3.20;;;;;;;18.92;84.39;95004.19;6279383;28;20748;-44
2023/10/20 10:20:29;;;;;;;11.63;3.30;;;;;;;18.81;86.23;95004.00;6277823;28;20258;-44
2023/10/20 10:23:33;;;;;;;13.83;2.73;;;;;;;18.70;87.56;95007.66;6278793;28;20597;-44
2023/10/20 10:26:44;;;;;;;9.17;3.23;;;;;;;18.59;88.70;95001.28;6279701;28;20245;-44
2023/10/20 10:30:00;;;;;;;7.13;3.00;;;;;;;18.51;88.78;95019.22;6275974;28;20296;-44
2023/10/20 10:33:05;;;;;;;9.47;3.27;;;;;;;18.35;89.58;95008.53;6277711;28;20859;-44
2023/10/20 10:36:10;;;;;;;6.90;2.90;;;;;;;18.39;90.15;95011.31;6280538;28;20252;-43
2023/10/20 10:39:27;;;;;;;7.57;3.17;;;;;;;18.27;90.55;95018.44;6279433;28;20214;-42
2023/10/20 10:42:29;;;;;;;8.07;2.93;;;;;;;18.41;87.65;95025.97;6278453;28;20238;-43
2023/10/20 10:45:33;;;;;;;7.37;3.47;;;;;;;18.39;88.60;95027.50;6279264;28;20334;-43
2023/10/20 10:48:37;;;;;;;9.10;2.93;;;;;;;18.13;90.04;95001.97;6278931;28;20227;-42
2023/10/20 10:51:45;;;;;;;7.17;2.80;;;;;;;18.24;90.63;95015.66;6285057;28;20230;-44
2023/10/20 10:54:51;;;;;;;5.43;2.50;;;;;;;18.18;91.37;95015.16;6278865;28;20287;-43
2023/10/20 10:57:56;;;;;;;9.97;3.33;;;;;;;18.14;90.93;95019.69;6278681;28;20239;-43
2023/10/20 11:00:59;;;;;;;8.43;2.87;;;;;;;18.14;91.60;95010.84;6280210;28;20238;-44
2023/10/20 11:04:06;;;;;;;7.57;2.90;;;;;;;18.08;92.32;95001.47;6280627;28;20234;-43
2023/10/20 11:07:13;;;;;;;7.00;3.00;;;;;;;18.07;92.01;95011.47;6285954;28;20584;-43
2023/10/20 11:10:15;;;;;;;6.23;2.90;;;;;;;17.92;93.18;94980.78;6259952;28;20246;-42
2023/10/20 11:13:19;;;;;;;7.73;3.07;;;;;;;17.82;93.52;94999.41;6277274;28;20234;-45
2023/10/20 11:16:23;;;;;;;6.73;2.87;;;;;;;18.00;92.91;95024.81;6260739;28;20226;-42
2023/10/20 11:19:25;;;;;;;7.33;3.10;;;;;;;18.04;91.94;95007.59;6278667;28;20238;-43
2023/10/20 11:22:37;;;;;;;4.77;2.20;;;;;;;18.09;91.84;95006.53;6280139;28;20223;-42
2023/10/20 11:25:43;;;;;;;5.50;2.40;;;;;;;18.11;90.01;95028.47;6278217;28;20242;-42
2023/10/20 11:28:45;;;;;;;4.37;2.30;;;;;;;18.05;89.34;95013.75;6278783;28;20235;-45
2023/10/20 11:31:48;;;;;;;7.07;2.70;;;;;;;18.05;88.83;95014.53;6277092;28;20238;-45
2023/10/20 11:34:50;;;;;;;4.40;2.07;;;;;;;18.02;89.37;95000.97;6279768;28;20287;-44
2023/10/20 11:37:57;;;;;;;4.60;2.00;;;;;;;18.05;89.11;95016.44;6278297;28;20226;-45
2023/10/20 11:41:00;;;;;;;5.90;2.07;;;;;;;17.99;90.21;95015.16;6275556;28;20231;-43
2023/10/20 11:44:02;;;;;;;6.20;2.00;;;;;;;17.95;88.58;95003.53;6274996;28;20286;-43
2023/10/20 11:47:04;;;;;;;6.37;2.17;;;;;;;17.37;89.03;94939.63;6277880;28;20307;-43
2023/10/20 11:50:11;;;;;;;4.13;1.90;;;;;;;17.92;88.63;95036.56;6275835;28;20242;-43
2023/10/20 11:53:14;;;;;;;4.67;1.73;;;;;;;17.95;86.57;95033.16;6275384;28;20234;-44
2023/10/20 11:56:16;;;;;;;6.63;2.33;;;;;;;18.01;86.16;95034.44;6276980;28;20237;-45
2023/10/20 11:59:18;;;;;;;9.33;2.13;;;;;;;18.03;86.02;95043.75;6275691;28;20229;-43
2023/10/20 12:02:21;;;;;;;5.90;1.90;;;;;;;17.99;86.97;95044.81;6277305;28;20226;-44
2023/10/20 12:05:25;;;;;;;4.37;2.20;;;;;;;17.95;86.73;95025.88;6278089;28;20230;-44
2023/10/20 12:08:29;;;;;;;5.17;1.63;;;;;;;17.94;86.38;95028.94;6283120;28;20234;-46
2023/10/20 12:11:31;;;;;;;4.10;1.93;;;;;;;17.90;86.75;95036.91;6259126;28;20230;-44
2023/10/20 12:14:34;;;;;;;7.40;2.20;;;;;;;17.90;87.01;95046.91;6277132;28;20234;-44
2023/10/20 12:17:39;;;;;;;5.10;1.97;;;;;;;17.89;86.75;95054.22;6276478;28;20230;-43
2023/10/20 12:20:41;;;;;;;4.07;2.13;;;;;;;17.94;86.10;95043.16;6276310;28;20238;-44
2023/10/20 12:23:43;;;;;;;3.97;1.90;;;;;;;17.90;85.90;95038.84;6282119;28;20233;-45
2023/10/20 12:26:46;;;;;;;5.07;2.10;;;;;;;17.92;86.08;95053.50;6275854;28;20279;-49
2023/10/20 12:29:48;;;;;;;4.23;2.10;;;;;;;17.88;86.87;95055.34;6262279;28;20806;-49
2023/10/20 12:32:51;;;;;;;7.27;2.23;;;;;;;17.84;86.85;95062.56;6276479;28;20321;-48
2023/10/20 12:35:57;;;;;;;6.13;2.33;;;;;;;17.82;85.81;95051.34;6274005;28;20226;-44
2023/10/20 12:39:00;;;;;;;6.43;2.17;;;;;;;17.97;84.46;95074.78;6275060;28;20227;-43
2023/10/20 12:42:03;;;;;;;4.63;2.40;;;;;;;18.15;82.52;95067.06;6275409;28;20231;-43
2023/10/20 12:45:09;;;;;;;4.40;2.20;;;;;;;18.16;83.28;95095.56;6277197;28;20229;-45
2023/10/20 12:48:11;;;;;;;5.30;2.33;;;;;;;18.17;83.11;95085.56;6276606;28;20225;-44
2023/10/20 12:51:13;;;;;;;7.17;2.40;;;;;;;18.16;83.25;95086.69;6277345;28;20265;-44
2023/10/20 12:54:16;;;;;;;7.77;2.63;;;;;;;18.13;83.68;95066.66;6274569;28;20254;-45
2023/10/20 12:57:19;;;;;;;6.77;2.27;;;;;;;17.99;84.28;95060.97;6254768;28;20221;-43
2023/10/20 13:00:22;;;;;;;6.37;2.27;;;;;;;18.05;84.60;95076.47;6275721;28;20215;-43
2023/10/20 13:03:26;;;;;;;7.20;2.93;;;;;;;18.03;85.22;95092.25;6276317;28;20597;-45
2023/10/20 13:06:29;;;;;;;8.13;2.97;;;;;;;17.92;85.37;95082.34;6275741;28;20230;-44
2023/10/20 13:09:31;;;;;;;7.50;3.07;;;;;;;18.11;83.99;95090.47;6276036;28;20223;-44
2023/10/20 13:12:33;;;;;;;11.80;3.00;;;;;;;18.18;84.69;95087.94;6275961;28;20222;-45
2023/10/20 13:15:36;;;;;;;7.87;2.90;;;;;;;18.22;85.48;95096.06;6280459;28;20228;-42
2023/10/20 13:18:38;;;;;;;7.07;2.53;;;;;;;18.06;85.23;95071.88;6280407;28;20603;-42
2023/10/20 13:21:40;;;;;;;8.30;3.40;;;;;;;18.03;85.20;95086.06;6278797;28;20263;-42
2023/10/20 13:24:44;;;;;;;6.57;2.80;;;;;;;17.98;86.04;95081.75;6279285;28;20309;-42
2023/10/20 13:27:48;;;;;;;11.37;3.53;;;;;;;18.10;84.96;95090.81;6275759;28;20706;-41
2023/10/20 13:31:07;;;;;;;16.97;4.00;;;;;;;18.18;84.51;95100.63;6276780;28;20260;-42
2023/10/20 13:34:10;;;;;;;9.27;3.63;;;;;;;18.20;83.94;95093.72;6275125;28;20235;-42
2023/10/20 13:37:12;;;;;;;11.83;3.77;;;;;;;18.23;83.38;95093.03;6273645;28;20273;-41
2023/10/20 13:40:14;;;;;;;7.70;3.23;;;;;;;18.52;80.98;95088.19;6273700;28;20630;-42
2023/10/20 13:43:17;;;;;;;13.63;3.97;;;;;;;18.55;81.32;95093.66;6274740;28;20258;-42
2023/10/20 13:46:19;;;;;;;9.07;3.47;;;;;;;18.53;81.03;95101.31;6274793;28;20913;-42
2023/10/20 13:49:21;;;;;;;8.43;3.23;;;;;;;18.66;79.96;95115.41;6274342;28;20230;-42
2023/10/20 13:52:24;;;;;;;13.17;4.20;;;;;;;18.75;79.87;95128.72;6275137;28;20226;-43
2023/10/20 13:55:26;;;;;;;11.47;3.80;;;;;;;18.90;78.70;95132.47;6279475;28;20234;-43
2023/10/20 13:58:31;;;;;;;11.20;3.57;;;;;;;18.87;77.57;95131.28;6277313;28;20227;-41
2023/10/20 14:01:33;;;;;;;14.37;3.53;;;;;;;19.08;76.32;95155.16;6278827;28;20241;-43
2023/10/20 14:04:36;;;;;;;11.63;3.47;;;;;;;19.19;75.45;95177.72;6276535;28;20222;-43
2023/10/20 14:07:38;;;;;;;11.90;4.00;;;;;;;19.30;75.08;95165.19;6268044;28;20703;-41
2023/10/20 14:10:42;;;;;;;10.80;3.07;;;;;;;19.46;74.66;95188.63;6259962;28;20682;-44
2023/10/20 14:13:45;;;;;;;11.47;3.87;;;;;;;19.48;75.36;95181.72;6254550;28;20228;-41
2023/10/20 14:16:47;;;;;;;15.47;4.33;;;;;;;19.49;75.57;95212.19;6254062;28;20242;-41
2023/10/20 14:19:49;;;;;;;10.77;4.53;;;;;;;19.45;76.44;95190.50;6267563;28;20226;-42
2023/10/20 14:22:52;;;;;;;12.47;4.40;;;;;;;19.30;77.18;95175.22;6278268;28;20233;-43
2023/10/20 14:25:56;;;;;;;11.37;3.97;;;;;;;19.33;77.89;95194.19;6261364;28;20234;-41
2023/10/20 14:28:58;;;;;;;15.47;4.10;;;;;;;19.28;78.13;95201.78;6276168;28;20309;-42
2023/10/20 14:32:01;;;;;;;9.33;3.57;;;;;;;19.24;78.51;95220.63;6259971;28;20230;-42
2023/10/20 14:35:04;;;;;;;9.77;3.93;;;;;;;19.27;78.75;95254.22;6277976;28;20238;-41
2023/10/20 14:38:06;;;;;;;12.73;4.37;;;;;;;19.35;77.01;95226.22;6278875;28;20698;-41
2023/10/20 14:41:09;;;;;;;16.40;4.87;;;;;;;19.50;76.66;95244.22;6277602;28;20697;-42
2023/10/20 14:44:11;;;;;;;14.43;4.23;;;;;;;19.73;74.54;95263.19;6277397;28;20745;-41